Saturday, February 24, 2018, 10:48 PM EST
Back to Local

KPHL, Philadelphia International Airpt

Location: Philadelphia, PA, United States Lat: 39.867
Local Time: 10:48 PM EST ( 3:48 GMT) Lon: -75.233
Time Zone: US/Eastern Elev: 19 ft

Show me the last for .
Show Decoded

2018-02-24 21:54 METAR KPHL 250254Z 04007KT 10SM -RA OVC047 08/07 A3019 RMK AO2 RAB44 SLP223
                 P0000 60000 T00830067 53005 $ =
2018-02-24 20:54 METAR KPHL 250154Z 05008KT 10SM OVC047 09/07 A3018 RMK AO2 SLP219 T00890067 $ =
2018-02-24 19:54 METAR KPHL 250054Z 06009KT 10SM OVC049 09/06 A3018 RMK AO2 SLP219 T00890061 $ =
2018-02-24 18:54 METAR KPHL 242354Z 05008KT 10SM OVC048 09/07 A3017 RMK AO2 SLP217 60005
                 T00890072 10100 20089 50001 $ =
2018-02-24 17:54 METAR KPHL 242254Z 02004KT 8SM OVC046 09/07 A3018 RMK AO2 SLP220 T00940067 $ =
2018-02-24 16:54 METAR KPHL 242154Z 04006KT 8SM SCT017 OVC046 10/08 A3017 RMK AO2 RAE12 SLP217
                 P0000 T01000078 $ =
2018-02-24 16:19 METAR KPHL 242119Z 36006KT 7SM FEW020 OVC045 10/07 A3018 RMK AO2 RAE12 P0000
                 T01000072 $ =
2018-02-24 15:54 METAR KPHL 242054Z 00000KT 5SM -RA BR FEW012 OVC042 10/08 A3017 RMK AO2 RAB52
                 SLP216 P0000 60005 T01000078 53005 $ =
2018-02-24 15:48 METAR KPHL 242048Z 01004KT 5SM BR FEW012 OVC042 09/08 A3017 RMK AO2 $ =
2018-02-24 14:54 METAR KPHL 241954Z 10006KT 3SM BR FEW007 FEW012 OVC041 09/08 A3013 RMK AO2 RAE14
                 SLP203 P0001 T00890078 $ =
2018-02-24 14:29 METAR KPHL 241929Z 10005KT 3SM BR FEW006 SCT012 OVC045 09/08 A3013 RMK AO2 RAE14
                 P0001 T00890083 $ =
2018-02-24 14:08 METAR KPHL 241908Z 11005KT 3SM -RA BR SCT006 BKN011 OVC046 09/08 A3015 RMK AO2
                 P0001 T00890083 $ =
2018-02-24 14:04 METAR KPHL 241904Z 09003KT 3SM -RA BR BKN006 BKN012 OVC045 09/08 A3015 RMK AO2
                 P0001 T00890083 $ =
2018-02-24 13:54 METAR KPHL 241854Z 02003KT 2SM R09R/6000VP6000FT -RA BR FEW009 BKN013 OVC047
                 09/08 A3016 RMK AO2 RAB12 SLP214 P0004 T00890083 $ =
2018-02-24 13:44 METAR KPHL 241844Z 34004KT 2 1/2SM RA BR FEW009 BKN014 OVC041 09/08 A3018 RMK
                 AO2 RAB12 P0002 T00890078 $ =
2018-02-24 12:54 METAR KPHL 241754Z 00000KT 5SM BR FEW009 SCT017 OVC034 09/07 A3016 RMK AO2
                 RAB28E54 SLP211 P0000 60000 T00890072 10089 20067 58011 $ =
2018-02-24 11:54 METAR KPHL 241654Z 22004KT 5SM BR SCT009 OVC033 09/07 A3020 RMK AO2 SLP227
                 T00890072 $ =
2018-02-24 11:37 METAR KPHL 241637Z 00000KT 5SM BR SCT008 OVC035 09/07 A3020 RMK AO2 T00890072 $
                 =
2018-02-24 11:02 METAR KPHL 241602Z 22005KT 5SM BR OVC007 09/07 A3021 RMK AO2 CIG 006V009
                 T00890072 $ =
2018-02-24 10:54 METAR KPHL 241554Z 22005KT 4SM BR BKN007 OVC034 08/07 A3021 RMK AO2 SLP230 CIG
                 006V008 T00830067 $ =
2018-02-24 09:54 METAR KPHL 241454Z 18003KT 4SM BR OVC007 08/07 A3019 RMK AO2 SLP222 CIG 006V008
                 T00780067 56003 $ =
2018-02-24 09:51 METAR KPHL 241451Z 18003KT 4SM BR OVC007 08/07 A3019 RMK AO2 CIG 006V008 $ =
2018-02-24 09:02 METAR KPHL 241402Z 00000KT 4SM BR OVC005 08/07 A3020 RMK AO2 CIG 004V007
                 T00780067 $ =
2018-02-24 08:54 METAR KPHL 241354Z VRB04KT 2 1/2SM BR BKN004 OVC095 08/06 A3019 RMK AO2 SLP224
                 CIG 003V005 T00780061 $ =
2018-02-24 08:09 METAR KPHL 241309Z 18003KT 2 1/2SM BR BKN004 BKN095 OVC200 07/07 A3020 RMK AO2
                 CIG 002V006 T00720067 $ =
2018-02-24 07:58 METAR KPHL 241258Z 18003KT 3SM BR BKN005 BKN095 BKN200 07/06 A3020 RMK AO2
                 BKN005 V SCT T00720061 $ =
2018-02-24 07:54 METAR KPHL 241254Z 00000KT 2 1/2SM BR BKN004 OVC095 07/07 A3020 RMK AO2 SLP225
                 CIG 002V007 BKN V SCT T00720067 $ =
2018-02-24 07:28 METAR KPHL 241228Z 00000KT 2SM BR BKN004 OVC095 07/07 A3019 RMK AO2 CIG 003V005
                 T00720067 $ =
2018-02-24 07:14 METAR KPHL 241214Z 00000KT 1 3/4SM R09R/5000VP6000FT BR BKN003 OVC090 07/06
                 A3019 RMK AO2 VIS W 1 CIG 002V005 T00670061 $ =
2018-02-24 07:04 METAR KPHL 241204Z 18003KT 2SM R09R/5500VP6000FT BR BKN002 OVC090 07/06 A3019
                 RMK AO2 T00670061 $ =
2018-02-24 06:54 METAR KPHL 241154Z 00000KT 4SM BR BKN004 OVC120 07/06 A3019 RMK AO2 SLP221 VIS W
                 2 70016 T00720061 10072 20067 50001 $ =
2018-02-24 05:54 METAR KPHL 241054Z 32003KT 3SM BR OVC003 07/06 A3020 RMK AO2 SLP226 VIS S 1
                 T00670061 $ =
2018-02-24 05:38 METAR KPHL 241038Z 26003KT 4SM BR OVC003 07/06 A3019 RMK AO2 T00670061 $ =
2018-02-24 04:54 METAR KPHL 240954Z 29003KT 6SM BR OVC004 07/06 A3019 RMK AO2 SLP223 T00670061 $
                 =
2018-02-24 03:54 METAR KPHL 240854Z 24007KT 6SM BR OVC004 07/06 A3018 RMK AO2 SLP220 T00670061
                 58016 $ =
2018-02-24 02:54 METAR KPHL 240754Z 25006KT 6SM BR OVC004 07/06 A3020 RMK AO2 SLP228 T00670061 $
                 =
2018-02-24 02:30 METAR KPHL 240730Z 25008KT 5SM BR OVC004 07/06 A3021 RMK AO2 T00670061 $ =
2018-02-24 02:21 METAR KPHL 240721Z 24009KT 5SM BR OVC005 07/06 A3021 RMK AO2 T00670061 $ =
2018-02-24 01:54 METAR KPHL 240654Z 25008KT 7SM OVC006 07/06 A3022 RMK AO2 SLP233 T00670061 $ =
2018-02-24 00:54 METAR KPHL 240554Z 24009KT 9SM OVC006 07/06 A3023 RMK AO2 SLP236 T00670061 10072
                 20061 56014 $ =
2018-02-23 23:54 METAR KPHL 240454Z 23011KT 9SM OVC006 07/06 A3023 RMK AO2 SLP237 T00670061
                 400670028 $ =
2018-02-23 23:40 METAR KPHL 240440Z 23011KT 7SM OVC006 07/06 A3022 RMK AO2 T00670061 $ =
2018-02-23 23:19 METAR KPHL 240419Z 23011KT 6SM BR OVC006 07/06 A3023 RMK AO2 T00670061 $ =
2018-02-23 23:02 METAR KPHL 240402Z 22010KT 4SM BR OVC004 07/06 A3024 RMK AO2 T00670061 $ =
2018-02-23 22:54 METAR KPHL 240354Z 22008KT 1 3/4SM BR OVC003 07/06 A3025 RMK AO2 SLP241
                 T00670061 $ =

Support USWX by starting your Amazon purchase here.